Aérodrome :
LOGIN :

S'inscrire | Disclaimer

   EN    FR    IT 

 










Légende :    VFR   VFR Marginal   IFR   IFR Intensif   IFR Très Intensif
Visi : 
Plafond : 
>= 8 km
>= 3000ft
5 à 8 km
1000 à 3000 ft
1500m à 5 km
500 à 1000 ft
800 à 1500m
200 à 500 ft
< 800m
< 200 ft
Symboles :   Orages  Brouillard  Fortes neiges  Fortes précipitations  Vent > 20 kt
SIGMETs :   Divers  Orages  Givrage  Turbulence  Onde Orograph.  Cendres Volcan.







- Altitude de l'aérodrome : 299 ft
- Code IATA : EDM
- Voir les cartes d'approche


LFRI - La Roche Sur Yon - Les Ajoncs

DERNIER METAR :
  • 160030Z AUTO 36004KT CAVOK 15/15 Q1018 NOSIG

METARs EXPIRÉS :
  • 160000Z AUTO 34003KT CAVOK 15/14 Q1018 NOSIG
  • 152330Z AUTO 33003KT CAVOK 16/15 Q1018 NOSIG
  • 152300Z AUTO 31002KT CAVOK 16/15 Q1018 NOSIG
  • 152230Z AUTO 33003KT CAVOK 17/15 Q1018 NOSIG
  • 152200Z AUTO 33003KT CAVOK 17/14 Q1019 NOSIG

TAF TAF LFRI
Valide du 15 à 18h jusqu'au 16 à 18h UTC


151700Z 1518/1618 VRB05KT CAVOK
PROB30
TEMPO 1604/1606 0500 FG VV///
BECMG 1612/1614 28010KT
Pas de NOTAMs connus pour ce terrain.



MET'MAP, la Météo Aéronautique d'un coup d'oeil ! - Copyright ORBIFLY Décembre 2007 - Disclaimer

ORBIFLY MET'MAP TEAM :

Programmation & Développement : Alexandra Zaïnal
Conception & Développement : Baudouin d'Aumeries
Co-Programmation & Développement : Marc-Olivier Méhu
Soutien technique & logistique : Manuel Goepfert

Contact : metmap@orbifly.com




SOURCES & CREDITS :

   NOAA